Home > Products > Valid Products > MTR

000
SAUS41 KLWX 271710
MTRRSP
METAR KRSP 271654Z AUTO 10SM FEW043 BKN055 11/M02 RMK AO2 SLPNO
T01061017 $





000
SAUS41 KLWX 271700
MTRRYT
METAR KRYT 271653Z AUTO 00000KT 10SM OVC060 12/M01 A2978 RMK AO2
SLP088 T01171011 $





000
SAUS41 KLWX 271658
MTRDMH
METAR KDMH 271654Z AUTO 14/M01 A2979 RMK AO1 SLP088 T01391011





000
SAUS41 KLWX 271656
MTRNAK
METAR KNAK 271654Z AUTO 33010KT 10SM OVC070 13/01 A2978 RMK AO2
SLP087 T01330011





000
SAUS41 KLWX 271610
MTRRSP
METAR KRSP 271554Z AUTO 10SM FEW038 BKN049 OVC060 08/M02 RMK AO2
SLPNO T00831017 $





000
SAUS41 KLWX 271600
MTRRYT
METAR KRYT 271553Z AUTO VRB05KT 10SM BKN048 OVC060 11/M01 A2979 RMK
AO2 SLP089 T01061011 $





000
SAUS41 KLWX 271558
MTRDMH
METAR KDMH 271554Z AUTO 14/00 A2979 RMK AO1 SLP086 T01440000





000
SAUS41 KLWX 271558
MTRDMH
METAR KDMH 271554Z AUTO 14/00 A2979 RMK AO1 SLP086 T01440000





000
SAUS41 KLWX 271555
MTRNAK
METAR KNAK 271554Z AUTO 33009KT 10SM OVC080 13/01 A2978 RMK AO2
SLP087 T01330011





000
SAUS41 KLWX 271511
MTRRSP
METAR KRSP 271454Z AUTO 10SM BKN033 BKN045 09/M01 RMK AO2 SLPNO
T00891011 $





000
SAUS41 KLWX 271500
MTRRYT
METAR KRYT 271453Z AUTO 32005KT 10SM SCT041 11/01 A2977 RMK AO2
SLP083 T01060006 51006 $





000
SAUS41 KLWX 271500
MTRRYT
METAR KRYT 271453Z AUTO 32005KT 10SM SCT041 11/01 A2977 RMK AO2
SLP083 T01060006 51006 $





000
SAUS41 KLWX 271458
MTRDMH
METAR KDMH 271454Z AUTO 13/M01 A2979 RMK AO1 SLP087 T01331006 51008





000
SAUS41 KLWX 271458
MTRDMH
METAR KDMH 271454Z AUTO 13/M01 A2979 RMK AO1 SLP087 T01331006 51008





000
SAUS41 KLWX 271455
MTRNAK
METAR KNAK 271454Z AUTO 32009KT 10SM OVC080 12/01 A2978 RMK AO2
SLP088 T01220006 51006





000
SAUS41 KLWX 271410
MTRRSP
METAR KRSP 271354Z AUTO 10SM OVC060 07/M01 RMK AO2 SLPNO T00671006 $





000
SAUS41 KLWX 271400
MTRRYT
METAR KRYT 271353Z AUTO 29007KT 270V340 10SM OVC070 09/01 A2977 RMK
AO2 SLP083 T00940011 $





000
SAUS41 KLWX 271400
MTRRYT
METAR KRYT 271353Z AUTO 29007KT 270V340 10SM OVC070 09/01 A2977 RMK
AO2 SLP083 T00940011 $





000
SAUS41 KLWX 271358
MTRDMH
METAR KDMH 271354Z AUTO 12/M01 A2979 RMK AO1 SLP086 T01171011





000
SAUS41 KLWX 271357 COR
MTRNAK
METAR KNAK 271354Z AUTO 32006KT 10SM OVC080 12/00 A2978 RMK AO2
SLP086 T01220000





000
SAUS41 KLWX 271356 COR
MTRNAK
METAR KNAK 271354Z AUTO 32006KT 10SM OVC080 12/00 A2978 RMK AO2
SLP086 T01220000





000
SAUS41 KLWX 271356 COR
MTRNAK
METAR KNAK 271354Z AUTO 32006KT 10SM OVC080 12/00 A2978 RMK AO2
SLP086 T01220000





000
SAUS41 KLWX 271310
MTRRSP
METAR KRSP 271254Z AUTO 10SM OVC055 06/M01 RMK AO2 SLPNO T00611011 $





000
SAUS41 KLWX 271300
MTRRYT
METAR KRYT 271253Z AUTO VRB05KT 10SM OVC065 08/M01 A2977 RMK AO2
SLP082 T00831006 $





000
SAUS41 KLWX 271258
MTRDMH
METAR KDMH 271254Z AUTO 12/M02 A2978 RMK AO1 SLP084 T01171017





000
SAUS41 KLWX 271258
MTRDMH
METAR KDMH 271254Z AUTO 12/M02 A2978 RMK AO1 SLP084 T01171017





000
SAUS41 KLWX 271256
MTRNAK
METAR KNAK 271254Z AUTO 31005KT 10SM OVC080 11/01 A2977 RMK AO2
SLP084 T01110011





000
SAUS41 KLWX 271256
MTRNAK
METAR KNAK 271254Z AUTO 31005KT 10SM OVC080 11/01 A2977 RMK AO2
SLP084 T01110011





000
SAUS41 KLWX 271210
MTRRSP
METAR KRSP 271154Z AUTO 10SM OVC055 06/M02 RMK AO2 SLPNO T00561017
10061 20039 $





000
SAUS41 KLWX 271210
MTRRSP
METAR KRSP 271154Z AUTO 10SM OVC055 06/M02 RMK AO2 SLPNO T00561017
10061 20039 $





000
SAUS41 KLWX 271200
MTRRYT
METAR KRYT 271153Z AUTO 00000KT 10SM OVC065 08/M02 A2975 RMK AO2
SLP077 T00781017 10078 20050 53008 $





000
SAUS41 KLWX 271200
MTRRYT
METAR KRYT 271153Z AUTO 00000KT 10SM OVC065 08/M02 A2975 RMK AO2
SLP077 T00781017 10078 20050 53008 $





000
SAUS41 KLWX 271158
MTRDMH
METAR KDMH 271154Z AUTO 11/M01 A2977 RMK AO1 SLP080 T01061011 10111
20100 53008





000
SAUS41 KLWX 271158
MTRDMH
METAR KDMH 271154Z AUTO 11/M01 A2977 RMK AO1 SLP080 T01061011 10111
20100 53008





000
SAUS41 KLWX 271155
MTRNAK
METAR KNAK 271154Z AUTO 30004KT 10SM OVC085 10/02 A2977 RMK AO2
SLP081 T01000022 10111 20078 53011





000
SAUS41 KLWX 271155
MTRNAK
METAR KNAK 271154Z AUTO 30004KT 10SM OVC085 10/02 A2977 RMK AO2
SLP081 T01000022 10111 20078 53011





000
SAUS41 KLWX 271110
MTRRSP
METAR KRSP 271054Z AUTO 10SM OVC055 05/M02 RMK AO2 SLPNO T00501022 $





000
SAUS41 KLWX 271110
MTRRSP
METAR KRSP 271054Z AUTO 10SM OVC055 05/M02 RMK AO2 SLPNO T00501022 $





000
SAUS41 KLWX 271100
MTRRYT
METAR KRYT 271053Z AUTO 00000KT 10SM OVC065 08/M03 A2974 RMK AO2
SLP072 T00781028 $





000
SAUS41 KLWX 271058
MTRDMH
METAR KDMH 271054Z AUTO 11/M02 A2976 RMK AO1 SLP077 T01061017





000
SAUS41 KLWX 271056
MTRNAK
METAR KNAK 271054Z AUTO 27003KT 10SM OVC090 08/02 A2975 RMK AO2
SLP076 T00830022





000
SAUS41 KLWX 271056
MTRNAK
METAR KNAK 271054Z AUTO 27003KT 10SM OVC090 08/02 A2975 RMK AO2
SLP076 T00830022





000
SAUS41 KLWX 271010
MTRRSP
METAR KRSP 270954Z AUTO 10SM SCT060 04/M03 RMK AO2 SLPNO T00391033 $





000
SAUS41 KLWX 271000
MTRRYT
METAR KRYT 270953Z AUTO 00000KT 10SM OVC070 07/M03 A2973 RMK AO2
SLP069 T00671028 $





000
SAUS41 KLWX 270958
MTRDMH
METAR KDMH 270954Z AUTO 11/M01 A2975 RMK AO1 SLP073 T01061011





000
SAUS41 KLWX 270955
MTRNAK
METAR KNAK 270954Z AUTO 00000KT 10SM BKN095 08/03 A2974 RMK AO2
SLP074 T00830028





000
SAUS41 KLWX 270910
MTRRSP
METAR KRSP 270854Z AUTO 10SM OVC060 05/M03 RMK AO2 SLPNO T00501028 $





000
SAUS41 KLWX 270900
MTRRYT
METAR KRYT 270853Z AUTO 00000KT 10SM OVC070 07/M02 A2973 RMK AO2
SLP067 T00721017 56005 $





000
SAUS41 KLWX 270858
MTRDMH
METAR KDMH 270854Z AUTO 11/M02 A2974 RMK AO1 SLP072 T01061022 56005





000
SAUS41 KLWX 270855
MTRNAK
METAR KNAK 270854Z AUTO 34004KT 10SM FEW090 09/03 A2973 RMK AO2
SLP070 T00940033 55000





000
SAUS41 KLWX 270810
MTRRSP
METAR KRSP 270754Z AUTO 10SM SCT060 OVC070 06/M03 RMK AO2 SLPNO
T00561033 $





000
SAUS41 KLWX 270800
MTRRYT
METAR KRYT 270753Z AUTO 00000KT 10SM OVC070 07/M02 A2974 RMK AO2
SLP070 T00671017 $





000
SAUS41 KLWX 270758
MTRDMH
METAR KDMH 270754Z AUTO 11/M02 A2975 RMK AO1 SLP074 T01061022





000
SAUS41 KLWX 270756
MTRNAK
METAR KNAK 270754Z AUTO 35005KT 10SM CLR 10/02 A2973 RMK AO2 SLP069
T01000022





000
SAUS41 KLWX 270710
MTRRSP
METAR KRSP 270654Z AUTO 10SM CLR 06/M04 RMK AO2 SLPNO T00561039 $





000
SAUS41 KLWX 270700
MTRRYT
METAR KRYT 270653Z AUTO 00000KT 10SM CLR 05/M02 A2973 RMK AO2 SLP071
T00501022 $





000
SAUS41 KLWX 270658
MTRDMH
METAR KDMH 270654Z AUTO 11/M02 A2975 RMK AO1 SLP074 T01061022





000
SAUS41 KLWX 270658
MTRDMH
METAR KDMH 270654Z AUTO 11/M02 A2975 RMK AO1 SLP074 T01061022





000
SAUS41 KLWX 270655
MTRNAK
METAR KNAK 270654Z AUTO 35005KT 10SM CLR 11/02 A2973 RMK AO2 SLP070
T01060017





000
SAUS41 KLWX 270655
MTRNAK
METAR KNAK 270654Z AUTO 35005KT 10SM CLR 11/02 A2973 RMK AO2 SLP070
T01060017





000
SAUS41 KLWX 270610
MTRRSP
METAR KRSP 270554Z AUTO 10SM CLR 06/M04 RMK AO2 SLPNO T00611039
10111 20056 $





000
SAUS41 KLWX 270610
MTRRSP
METAR KRSP 270554Z AUTO 10SM CLR 06/M04 RMK AO2 SLPNO T00611039
10111 20056 $





000
SAUS41 KLWX 270600
MTRRYT
METAR KRYT 270553Z AUTO 00000KT 10SM CLR 07/M03 A2974 RMK AO2 SLP073
T00721028 10133 20072 50002 $





000
SAUS41 KLWX 270600
MTRRYT
METAR KRYT 270553Z AUTO 00000KT 10SM CLR 07/M03 A2974 RMK AO2 SLP073
T00721028 10133 20072 50002 $





000
SAUS41 KLWX 270558
MTRDMH
METAR KDMH 270554Z AUTO 11/M02 A2976 RMK AO1 SLP077 T01111017 10161
20111 51011





000
SAUS41 KLWX 270556
MTRNAK
METAR KNAK 270554Z AUTO 36007KT 10SM CLR 11/03 A2973 RMK AO2 SLP070
T01110028 10133 20089 51006





000
SAUS41 KLWX 270510
MTRRSP
METAR KRSP 270454Z AUTO 10SM BKN070 07/M04 RMK AO2 SLPNO T00671039
401440033 $





000
SAUS41 KLWX 270510
MTRRSP
METAR KRSP 270454Z AUTO 10SM BKN070 07/M04 RMK AO2 SLPNO T00671039
401440033 $





000
SAUS41 KLWX 270500
MTRRYT
METAR KRYT 270453Z AUTO VRB03KT 10SM CLR 09/M03 A2975 RMK AO2 SLP074
T00941033 401610044 $





000
SAUS41 KLWX 270458
MTRDMH
METAR KDMH 270454Z AUTO 12/M02 A2976 RMK AO1 SLP076 T01171022
401830072





000
SAUS41 KLWX 270458
MTRDMH
METAR KDMH 270454Z AUTO 12/M02 A2976 RMK AO1 SLP076 T01171022
401830072





000
SAUS41 KLWX 270456
MTRNAK
METAR KNAK 270454Z AUTO 35007KT 10SM CLR 11/03 A2973 RMK AO2 SLP070
T01110033 401610061





000
SAUS41 KLWX 270456
MTRNAK
METAR KNAK 270454Z AUTO 35007KT 10SM CLR 11/03 A2973 RMK AO2 SLP070
T01110033 401610061





000
SAUS41 KLWX 270410
MTRRSP
METAR KRSP 270354Z AUTO 10SM OVC070 08/M04 RMK AO2 SLPNO T00781039 $





000
SAUS41 KLWX 270400
MTRRYT
METAR KRYT 270353Z AUTO 05006KT 10SM SCT080 10/M03 A2975 RMK AO2
SLP074 T01001033 $





000
SAUS41 KLWX 270358
MTRDMH
METAR KDMH 270354Z AUTO 13/M02 A2974 RMK AO1 SLP071 T01281022





000
SAUS41 KLWX 270355
MTRNAK
METAR KNAK 270354Z AUTO 31003KT 10SM CLR 09/05 A2973 RMK AO2 SLP068
T00890050





000
SAUS41 KLWX 270310
MTRRSP
METAR KRSP 270254Z AUTO 10SM OVC075 09/M03 RMK AO2 SLPNO T00891033 $





000
SAUS41 KLWX 270300
MTRRYT
METAR KRYT 270253Z AUTO 06005KT 10SM OVC085 12/M03 A2974 RMK AO2
SLP070 T01171028 53017 $





000
SAUS41 KLWX 270258
MTRDMH
METAR KDMH 270254Z AUTO 14/M02 A2973 RMK AO1 SLP066 T01391022 53008





000
SAUS41 KLWX 270258
MTRDMH
METAR KDMH 270254Z AUTO 14/M02 A2973 RMK AO1 SLP066 T01391022 53008





000
SAUS41 KLWX 270255
MTRNAK
METAR KNAK 270254Z AUTO 00000KT 10SM CLR 10/04 A2972 RMK AO2 SLP065
T01000044 51008





000
SAUS41 KLWX 270210
MTRRSP
METAR KRSP 270154Z AUTO 10SM BKN080 10/M03 RMK AO2 SLPNO T01001033 $





000
SAUS41 KLWX 270200
MTRRYT
METAR KRYT 270153Z AUTO 04003KT 10SM OVC090 12/M02 A2972 RMK AO2
SLP063 T01221017 $





000
SAUS41 KLWX 270200
MTRRYT
METAR KRYT 270153Z AUTO 04003KT 10SM OVC090 12/M02 A2972 RMK AO2
SLP063 T01221017 $





000
SAUS41 KLWX 270158
MTRDMH
METAR KDMH 270154Z AUTO 14/M03 A2972 RMK AO1 SLP062 T01441028





000
SAUS41 KLWX 270158
MTRDMH
METAR KDMH 270154Z AUTO 14/M03 A2972 RMK AO1 SLP062 T01441028





000
SAUS41 KLWX 270155
MTRNAK
METAR KNAK 270154Z AUTO 00000KT 10SM CLR 10/03 A2971 RMK AO2 SLP062
T01000033





000
SAUS41 KLWX 270155
MTRNAK
METAR KNAK 270154Z AUTO 00000KT 10SM CLR 10/03 A2971 RMK AO2 SLP062
T01000033





000
SAUS41 KLWX 270110
MTRRSP
METAR KRSP 270054Z AUTO 10SM BKN080 11/M03 RMK AO2 SLPNO T01061033 $





000
SAUS41 KLWX 270100
MTRRYT
METAR KRYT 270053Z AUTO VRB04KT 10SM OVC090 12/M02 A2970 RMK AO2
SLP058 T01171022 $





000
SAUS41 KLWX 270100
MTRRYT
METAR KRYT 270053Z AUTO VRB04KT 10SM OVC090 12/M02 A2970 RMK AO2
SLP058 T01171022 $





000
SAUS41 KLWX 270058
MTRDMH
METAR KDMH 270054Z AUTO 16/M03 A2971 RMK AO1 SLP059 T01561033





000
SAUS41 KLWX 270058
MTRDMH
METAR KDMH 270054Z AUTO 16/M03 A2971 RMK AO1 SLP059 T01561033





000
SAUS41 KLWX 270056
MTRNAK
METAR KNAK 270054Z AUTO 00000KT 10SM CLR 12/03 A2970 RMK AO2 SLP060
T01170033





000
SAUS41 KLWX 270056
MTRNAK
METAR KNAK 270054Z AUTO 00000KT 10SM CLR 12/03 A2970 RMK AO2 SLP060
T01170033





000
SAUS41 KLWX 270010
MTRRSP
METAR KRSP 262354Z AUTO 10SM SCT075 11/M04 RMK AO2 SLPNO T01111044
10144 20111 $





000
SAUS41 KLWX 270010
MTRRSP
METAR KRSP 262354Z AUTO 10SM SCT075 11/M04 RMK AO2 SLPNO T01111044
10144 20111 $





000
SAUS41 KLWX 270000
MTRRYT
METAR KRYT 262353Z AUTO 00000KT 10SM CLR 14/M03 A2968 RMK AO2 SLP053
T01391028 10161 20139 53005 $





000
SAUS41 KLWX 270000
MTRRYT
METAR KRYT 262353Z AUTO 00000KT 10SM CLR 14/M03 A2968 RMK AO2 SLP053
T01391028 10161 20139 53005 $





000
SAUS41 KLWX 262358
MTRDMH
METAR KDMH 262354Z AUTO 16/M04 A2970 RMK AO1 SLP058 T01611039 10183
20161 53009





000
SAUS41 KLWX 262358
MTRDMH
METAR KDMH 262354Z AUTO 16/M04 A2970 RMK AO1 SLP058 T01611039 10183
20161 53009





000
SAUS41 KLWX 262355
MTRNAK
METAR KNAK 262354Z AUTO 00000KT 10SM CLR 13/04 A2969 RMK AO2 SLP057
T01330044 10161 20133 53007





000
SAUS41 KLWX 262310
MTRRSP
METAR KRSP 262254Z AUTO 10SM CLR 12/M04 RMK AO2 SLPNO T01221044 $





000
SAUS41 KLWX 262310
MTRRSP
METAR KRSP 262254Z AUTO 10SM CLR 12/M04 RMK AO2 SLPNO T01221044 $





000
SAUS41 KLWX 262300
MTRRYT
METAR KRYT 262253Z AUTO 00000KT 10SM SCT080 16/M03 A2968 RMK AO2
SLP049 T01561033 $





000
SAUS41 KLWX 262300
MTRRYT
METAR KRYT 262253Z AUTO 00000KT 10SM SCT080 16/M03 A2968 RMK AO2
SLP049 T01561033 $





000
SAUS41 KLWX 262258
MTRDMH
METAR KDMH 262254Z AUTO 17/M04 A2969 RMK AO1 SLP054 T01671044





000
SAUS41 KLWX 262258
MTRDMH
METAR KDMH 262254Z AUTO 17/M04 A2969 RMK AO1 SLP054 T01671044





000
SAUS41 KLWX 262255
MTRNAK
METAR KNAK 262254Z AUTO 16004KT 10SM CLR 14/03 A2968 RMK AO2 SLP052
T01440028





000
SAUS41 KLWX 262255
MTRNAK
METAR KNAK 262254Z AUTO 16004KT 10SM CLR 14/03 A2968 RMK AO2 SLP052
T01440028





000
SAUS41 KLWX 262210
MTRRSP
METAR KRSP 262154Z AUTO 10SM CLR 13/M04 RMK AO2 SLPNO T01281039 $





000
SAUS41 KLWX 262200
MTRRYT
METAR KRYT 262153Z AUTO VRB05KT 10SM SCT075 16/M02 A2967 RMK AO2
SLP050 T01561022 $





000
SAUS41 KLWX 262158
MTRDMH
METAR KDMH 262154Z AUTO 17/M05 A2969 RMK AO1 SLP052 T01671050





000
SAUS41 KLWX 262155
MTRNAK
METAR KNAK 262154Z AUTO 14006KT 10SM FEW085 14/04 A2968 RMK AO2
SLP051 T01440039





000
SAUS41 KLWX 262155
MTRNAK
METAR KNAK 262154Z AUTO 14006KT 10SM FEW085 14/04 A2968 RMK AO2
SLP051 T01440039





000
SAUS41 KLWX 262110
MTRRSP
METAR KRSP 262054Z AUTO 10SM CLR 14/M04 RMK AO2 SLPNO T01391044 $





000
SAUS41 KLWX 262110
MTRRSP
METAR KRSP 262054Z AUTO 10SM CLR 14/M04 RMK AO2 SLPNO T01391044 $





000
SAUS41 KLWX 262100
MTRRYT
METAR KRYT 262053Z AUTO 36003KT 10SM FEW075 16/M03 A2967 RMK AO2
SLP048 T01561033 56005 $





000
SAUS41 KLWX 262058
MTRDMH
METAR KDMH 262054Z AUTO 18/M04 A2968 RMK AO1 SLP049 T01781044 56006





000
SAUS41 KLWX 262055
MTRNAK
METAR KNAK 262054Z AUTO 15005KT 10SM FEW085 14/02 A2967 RMK AO2
SLP049 T01390017 56007





000
SAUS41 KLWX 262055
MTRNAK
METAR KNAK 262054Z AUTO 15005KT 10SM FEW085 14/02 A2967 RMK AO2
SLP049 T01390017 56007





000
SAUS41 KLWX 262010
MTRRSP
METAR KRSP 261954Z AUTO 10SM CLR 13/M04 RMK AO2 SLPNO T01331044 $





000
SAUS41 KLWX 262000
MTRRYT
METAR KRYT 261953Z AUTO 26007G15KT 230V300 10SM BKN075 16/M01 A2967
RMK AO2 SLP049 T01611011 $





000
SAUS41 KLWX 261958
MTRDMH
METAR KDMH 261954Z AUTO 18/M02 A2968 RMK AO1 SLP050 T01831017





000
SAUS41 KLWX 261955
MTRNAK
METAR KNAK 261954Z AUTO 15010KT 10SM SCT080 14/02 A2968 RMK AO2
SLP051 T01440017





000
SAUS41 KLWX 261910
MTRRSP
METAR KRSP 261854Z AUTO 10SM CLR 12/M03 RMK AO2 SLPNO T01221028 $





000
SAUS41 KLWX 261910
MTRRSP
METAR KRSP 261854Z AUTO 10SM CLR 12/M03 RMK AO2 SLPNO T01221028 $





000
SAUS41 KLWX 261900
MTRRYT
METAR KRYT 261853Z AUTO 36010G15KT 10SM FEW070 16/M01 A2968 RMK AO2
SLP052 T01561011 $





000
SAUS41 KLWX 261900
MTRRYT
METAR KRYT 261853Z AUTO 36010G15KT 10SM FEW070 16/M01 A2968 RMK AO2
SLP052 T01561011 $





000
SAUS41 KLWX 261858
MTRDMH
METAR KDMH 261854Z AUTO 17/M03 A2969 RMK AO1 SLP052 T01721028





000
SAUS41 KLWX 261858
MTRDMH
METAR KDMH 261854Z AUTO 17/M03 A2969 RMK AO1 SLP052 T01721028





000
SAUS41 KLWX 261855
MTRNAK
METAR KNAK 261854Z AUTO 13010KT 10SM FEW075 14/03 A2968 RMK AO2
SLP052 T01440033





000
SAUS41 KLWX 261855
MTRNAK
METAR KNAK 261854Z AUTO 13010KT 10SM FEW075 14/03 A2968 RMK AO2
SLP052 T01440033





000
SAUS41 KLWX 261810
MTRRSP
METAR KRSP 261754Z AUTO 10SM CLR 12/M03 RMK AO2 SLPNO T01221028
10128 20067 $





000
SAUS41 KLWX 261800
MTRRYT
METAR KRYT 261753Z AUTO VRB03KT 10SM CLR 15/M02 A2968 RMK AO2 SLP054
T01501017 10150 20078 58009 $





000
SAUS41 KLWX 261800
MTRRYT
METAR KRYT 261753Z AUTO VRB03KT 10SM CLR 15/M02 A2968 RMK AO2 SLP054
T01501017 10150 20078 58009 $





000
SAUS41 KLWX 261758
MTRDMH
METAR KDMH 261754Z AUTO 17/M02 A2969 RMK AO1 SLP055 T01671022 10167
20089 58008





000
SAUS41 KLWX 261758
MTRDMH
METAR KDMH 261754Z AUTO 17/M02 A2969 RMK AO1 SLP055 T01671022 10167
20089 58008





000
SAUS41 KLWX 261755
MTRNAK
METAR KNAK 261754Z AUTO 00000KT 10SM CLR 16/01 A2969 RMK AO2 SLP056
T01560006 10156 20078 58008





000
SAUS41 KLWX 261755
MTRNAK
METAR KNAK 261754Z AUTO 00000KT 10SM CLR 16/01 A2969 RMK AO2 SLP056
T01560006 10156 20078 58008





000
SAUS41 KLWX 261710
MTRRSP
METAR KRSP 261654Z AUTO 10SM CLR 12/M04 RMK AO2 SLPNO T01221039 $





000
SAUS41 KLWX 261710
MTRRSP
METAR KRSP 261654Z AUTO 10SM CLR 12/M04 RMK AO2 SLPNO T01221039 $





000
SAUS41 KLWX 261700
MTRRYT
METAR KRYT 261653Z AUTO VRB03KT 10SM BKN070 13/M03 A2969 RMK AO2
SLP058 T01331028 $





000
SAUS41 KLWX 261658
MTRDMH
METAR KDMH 261654Z AUTO 16/M03 A2971 RMK AO1 SLP060 T01561028





000
SAUS41 KLWX 261655
MTRNAK
METAR KNAK 261654Z AUTO VRB04KT 10SM CLR 14/M01 A2971 RMK AO2 SLP062
T01391006





000
SAUS41 KLWX 261655
MTRNAK
METAR KNAK 261654Z AUTO VRB04KT 10SM CLR 14/M01 A2971 RMK AO2 SLP062
T01391006





000
SAUS41 KLWX 261610
MTRRSP
METAR KRSP 261554Z AUTO 10SM CLR 11/M02 RMK AO2 SLPNO T01111022 $





000
SAUS41 KLWX 261600
MTRRYT
METAR KRYT 261553Z AUTO 00000KT 10SM CLR 13/M02 A2970 RMK AO2 SLP063
T01281017 $





000
SAUS41 KLWX 261558
MTRDMH
METAR KDMH 261554Z AUTO 15/M01 A2972 RMK AO1 SLP062 T01501011





000
SAUS41 KLWX 261555
MTRNAK
METAR KNAK 261554Z AUTO 36009KT 10SM CLR 13/00 A2972 RMK AO2 SLP065
T01330000





000
SAUS41 KLWX 261510
MTRRSP
METAR KRSP 261454Z AUTO 10SM CLR 11/M04 RMK AO2 SLPNO T01061039 $





000
SAUS41 KLWX 261510
MTRRSP
METAR KRSP 261454Z AUTO 10SM CLR 11/M04 RMK AO2 SLPNO T01061039 $





000
SAUS41 KLWX 261500
MTRRYT
METAR KRYT 261453Z AUTO VRB05KT 10SM CLR 12/M03 A2971 RMK AO2 SLP065
T01221028 51009 $





000
SAUS41 KLWX 261458
MTRDMH
METAR KDMH 261454Z AUTO 14/M02 A2972 RMK AO1 SLP063 T01391017 53010





000
SAUS41 KLWX 261458
MTRDMH
METAR KDMH 261454Z AUTO 14/M02 A2972 RMK AO1 SLP063 T01391017 53010





000
SAUS41 KLWX 261455
MTRNAK
METAR KNAK 261454Z AUTO 02005KT 10SM CLR 12/01 A2971 RMK AO2 SLP064
T01170006 53010





000
SAUS41 KLWX 261410
MTRRSP
METAR KRSP 261354Z AUTO 10SM CLR 09/M04 RMK AO2 SLPNO T00891044 $





000
SAUS41 KLWX 261400
MTRRYT
METAR KRYT 261353Z AUTO VRB06KT 10SM CLR 11/M03 A2970 RMK AO2 SLP063
T01061033 $





000
SAUS41 KLWX 261400
MTRRYT
METAR KRYT 261353Z AUTO VRB06KT 10SM CLR 11/M03 A2970 RMK AO2 SLP063
T01061033 $





000
SAUS41 KLWX 261358
MTRDMH
METAR KDMH 261354Z AUTO 13/M01 A2971 RMK AO1 SLP059 T01281011





000
SAUS41 KLWX 261355
MTRNAK
METAR KNAK 261354Z AUTO 36010KT 10SM CLR 11/01 A2970 RMK AO2 SLP059
T01110011





000
SAUS41 KLWX 261310
MTRRSP
METAR KRSP 261254Z AUTO 10SM CLR 07/M03 RMK AO2 SLPNO T00721033 $





000
SAUS41 KLWX 261310
MTRRSP
METAR KRSP 261254Z AUTO 10SM CLR 07/M03 RMK AO2 SLPNO T00721033 $





000
SAUS41 KLWX 261300
MTRRYT
METAR KRYT 261253Z AUTO VRB03KT 10SM CLR 09/M03 A2970 RMK AO2 SLP062
T00891033 $





000
SAUS41 KLWX 261300
MTRRYT
METAR KRYT 261253Z AUTO VRB03KT 10SM CLR 09/M03 A2970 RMK AO2 SLP062
T00891033 $





000
SAUS41 KLWX 261258
MTRDMH
METAR KDMH 261254Z AUTO 11/M01 A2970 RMK AO1 SLP057 T01111011





000
SAUS41 KLWX 261258
MTRDMH
METAR KDMH 261254Z AUTO 11/M01 A2970 RMK AO1 SLP057 T01111011





000
SAUS41 KLWX 261255
MTRNAK
METAR KNAK 261254Z AUTO 35006KT 10SM BKN110 09/03 A2969 RMK AO2
SLP055 T00940033





000
SAUS41 KLWX 261255
MTRNAK
METAR KNAK 261254Z AUTO 35006KT 10SM BKN110 09/03 A2969 RMK AO2
SLP055 T00940033





000
SAUS41 KLWX 261210
MTRRSP
METAR KRSP 261154Z AUTO 10SM CLR 07/M04 RMK AO2 SLPNO T00671039
10067 20039 $





000
SAUS41 KLWX 261210
MTRRSP
METAR KRSP 261154Z AUTO 10SM CLR 07/M04 RMK AO2 SLPNO T00671039
10067 20039 $





000
SAUS41 KLWX 261200
MTRRYT
METAR KRYT 261153Z AUTO 00000KT 10SM CLR 08/M03 A2968 RMK AO2 SLP056
T00781028 10078 20050 53006 $





000
SAUS41 KLWX 261200
MTRRYT
METAR KRYT 261153Z AUTO 00000KT 10SM CLR 08/M03 A2968 RMK AO2 SLP056
T00781028 10078 20050 53006 $





000
SAUS41 KLWX 261158
MTRDMH
METAR KDMH 261154Z AUTO 09/00 A2969 RMK AO1 SLP053 T00890000 10089
20072 55001





000
SAUS41 KLWX 261158
MTRDMH
METAR KDMH 261154Z AUTO 09/00 A2969 RMK AO1 SLP053 T00890000 10089
20072 55001





000
SAUS41 KLWX 261155
MTRNAK
METAR KNAK 261154Z AUTO 33007KT 10SM BKN110 08/03 A2968 RMK AO2
SLP053 70018 T00780033 10078 20061 52005





000
SAUS41 KLWX 261155
MTRNAK
METAR KNAK 261154Z AUTO 33007KT 10SM BKN110 08/03 A2968 RMK AO2
SLP053 70018 T00780033 10078 20061 52005





000
SAUS41 KLWX 261110
MTRRSP
METAR KRSP 261054Z AUTO 10SM FEW120 04/M04 RMK AO2 SLPNO T00441039 $





000
SAUS41 KLWX 261110
MTRRSP
METAR KRSP 261054Z AUTO 10SM FEW120 04/M04 RMK AO2 SLPNO T00441039 $





000
SAUS41 KLWX 261100
MTRRYT
METAR KRYT 261053Z AUTO 00000KT 10SM FEW120 07/M03 A2968 RMK AO2
SLP054 T00721028 $





000
SAUS41 KLWX 261100
MTRRYT
METAR KRYT 261053Z AUTO 00000KT 10SM FEW120 07/M03 A2968 RMK AO2
SLP054 T00721028 $





000
SAUS41 KLWX 261058
MTRDMH
METAR KDMH 261054Z AUTO 08/01 A2969 RMK AO1 SLP053 T00830006





000
SAUS41 KLWX 261058
MTRDMH
METAR KDMH 261054Z AUTO 08/01 A2969 RMK AO1 SLP053 T00830006





000
SAUS41 KLWX 261055
MTRNAK
METAR KNAK 261054Z AUTO 30005KT 10SM OVC110 07/04 A2968 RMK AO2
SLP051 T00670039





000
SAUS41 KLWX 261010
MTRRSP
METAR KRSP 260954Z AUTO 10SM BKN095 OVC120 04/M03 RMK AO2 SLPNO
T00441033 $





000
SAUS41 KLWX 261000
MTRRYT
METAR KRYT 260953Z AUTO 00000KT 10SM BKN110 05/01 A2967 RMK AO2
SLP051 T00500011 $





000
SAUS41 KLWX 260958
MTRDMH
METAR KDMH 260954Z AUTO 08/01 A2968 RMK AO1 SLP049 T00780011





000
SAUS41 KLWX 260955
MTRNAK
METAR KNAK 260954Z AUTO 26003KT 10SM OVC110 07/04 A2967 RMK AO2
SLP050 T00670044





000
SAUS41 KLWX 260910
MTRRSP
METAR KRSP 260854Z AUTO 10SM OVC100 04/M01 RMK AO2 SLPNO T00391011 $





000
SAUS41 KLWX 260910
MTRRSP
METAR KRSP 260854Z AUTO 10SM OVC100 04/M01 RMK AO2 SLPNO T00391011 $





000
SAUS41 KLWX 260900
MTRRYT
METAR KRYT 260853Z AUTO 00000KT 10SM BKN110 06/00 A2966 RMK AO2
SLP049 T00610000 58003 $





000
SAUS41 KLWX 260858
MTRDMH
METAR KDMH 260854Z AUTO 08/02 A2969 RMK AO1 SLP054 T00780017 55005





000
SAUS41 KLWX 260855
MTRNAK
METAR KNAK 260854Z AUTO 35007KT 9SM OVC090 07/05 A2967 RMK AO2
SLP049 T00670050 58005





000
SAUS41 KLWX 260810
MTRRSP
METAR KRSP 260754Z AUTO 10SM OVC100 04/M01 RMK AO2 SLPNO T00391011 $





000
SAUS41 KLWX 260810
MTRRSP
METAR KRSP 260754Z AUTO 10SM OVC100 04/M01 RMK AO2 SLPNO T00391011 $





000
SAUS41 KLWX 260800
MTRRYT
METAR KRYT 260753Z AUTO 00000KT 10SM OVC110 06/01 A2967 RMK AO2
SLP050 T00560006 $





000
SAUS41 KLWX 260758
MTRDMH
METAR KDMH 260754Z AUTO 08/02 A2969 RMK AO1 SLP054 T00780022





000
SAUS41 KLWX 260755
MTRNAK
METAR KNAK 260754Z AUTO 34007KT 10SM OVC090 07/05 A2968 RMK AO2
SLP052 T00720050





000
SAUS41 KLWX 260755
MTRNAK
METAR KNAK 260754Z AUTO 34007KT 10SM OVC090 07/05 A2968 RMK AO2
SLP052 T00720050





000
SAUS41 KLWX 260710
MTRRSP
METAR KRSP 260654Z AUTO 10SM OVC085 04/M02 RMK AO2 SLPNO T00391017 $





000
SAUS41 KLWX 260710
MTRRSP
METAR KRSP 260654Z AUTO 10SM OVC085 04/M02 RMK AO2 SLPNO T00391017 $





000
SAUS41 KLWX 260700
MTRRYT
METAR KRYT 260653Z AUTO VRB03KT 10SM OVC100 06/00 A2967 RMK AO2
SLP052 T00560000 $





000
SAUS41 KLWX 260700
MTRRYT
METAR KRYT 260653Z AUTO VRB03KT 10SM OVC100 06/00 A2967 RMK AO2
SLP052 T00560000 $





000
SAUS41 KLWX 260658
MTRDMH
METAR KDMH 260654Z AUTO 08/03 A2968 RMK AO1 SLP052 T00780028





000
SAUS41 KLWX 260658
MTRDMH
METAR KDMH 260654Z AUTO 08/03 A2968 RMK AO1 SLP052 T00780028





000
SAUS41 KLWX 260656
MTRNAK
METAR KNAK 260654Z AUTO 34003KT 10SM FEW075 OVC100 07/04 A2968 RMK
AO2 SLP052 T00670044





000
SAUS41 KLWX 260656
MTRNAK
METAR KNAK 260654Z AUTO 34003KT 10SM FEW075 OVC100 07/04 A2968 RMK
AO2 SLP052 T00670044





000
SAUS41 KLWX 260610
MTRRSP
METAR KRSP 260554Z AUTO 10SM OVC080 04/M02 RMK AO2 SLPNO T00391017
10056 20028 $





000
SAUS41 KLWX 260610
MTRRSP
METAR KRSP 260554Z AUTO 10SM OVC080 04/M02 RMK AO2 SLPNO T00391017
10056 20028 $





000
SAUS41 KLWX 260600
MTRRYT
METAR KRYT 260553Z AUTO 00000KT 10SM BKN095 BKN120 05/01 A2967 RMK
AO2 SLP054 T00500006 10089 20044 56014 $





000
SAUS41 KLWX 260600
MTRRYT
METAR KRYT 260553Z AUTO 00000KT 10SM BKN095 BKN120 05/01 A2967 RMK
AO2 SLP054 T00500006 10089 20044 56014 $





000
SAUS41 KLWX 260558
MTRDMH
METAR KDMH 260554Z AUTO 07/03 A2971 RMK AO1 SLP059 T00720028 10100
20067 56017





000
SAUS41 KLWX 260558
MTRDMH
METAR KDMH 260554Z AUTO 07/03 A2971 RMK AO1 SLP059 T00720028 10100
20067 56017





000
SAUS41 KLWX 260555
MTRNAK
METAR KNAK 260554Z AUTO 00000KT 10SM OVC070 07/04 A2968 RMK AO2
RAE01 SLP053 P0000 60017 T00670044 10072 20061 56028





000
SAUS41 KLWX 260555
MTRNAK
METAR KNAK 260554Z AUTO 00000KT 10SM OVC070 07/04 A2968 RMK AO2
RAE01 SLP053 P0000 60017 T00670044 10072 20061 56028





000
SAUS41 KLWX 260510
MTRRSP
METAR KRSP 260454Z AUTO 10SM OVC070 03/M02 RMK AO2 SLPNO T00331017
401060017 $





000
SAUS41 KLWX 260510
MTRRSP
METAR KRSP 260454Z AUTO 10SM OVC070 03/M02 RMK AO2 SLPNO T00331017
401060017 $





000
SAUS41 KLWX 260500
MTRRYT
METAR KRYT 260453Z AUTO 00000KT 10SM OVC100 05/01 A2968 RMK AO2
SLP057 T00500006 401220006 $





000
SAUS41 KLWX 260500
MTRRYT
METAR KRYT 260453Z AUTO 00000KT 10SM OVC100 05/01 A2968 RMK AO2
SLP057 T00500006 401220006 $





000
SAUS41 KLWX 260458
MTRDMH
METAR KDMH 260454Z AUTO 07/03 A2972 RMK AO1 SLP062 T00720028
401280061





000
SAUS41 KLWX 260458
MTRDMH
METAR KDMH 260454Z AUTO 07/03 A2972 RMK AO1 SLP062 T00720028
401280061





000
SAUS41 KLWX 260456
MTRNAK
METAR KNAK 260454Z AUTO 20008KT 10SM -RA OVC049 07/04 A2970 RMK AO2
RAE21B38 SLP059 P0000 T00670044 401170061





000
SAUS41 KLWX 260456
MTRNAK
METAR KNAK 260454Z AUTO 20008KT 10SM -RA OVC049 07/04 A2970 RMK AO2
RAE21B38 SLP059 P0000 T00670044 401170061





000
SAUS41 KLWX 260410
MTRRSP
METAR KRSP 260354Z AUTO 10SM BKN070 OVC090 03/M01 RMK AO2 SLPNO
T00331011 $





000
SAUS41 KLWX 260410
MTRRSP
METAR KRSP 260354Z AUTO 10SM BKN070 OVC090 03/M01 RMK AO2 SLPNO
T00331011 $





000
SAUS41 KLWX 260400
MTRRYT
METAR KRYT 260353Z AUTO 00000KT 10SM OVC100 05/M01 A2968 RMK AO2
SLP058 T00501006 $





000
SAUS41 KLWX 260400
MTRRYT
METAR KRYT 260353Z AUTO 00000KT 10SM OVC100 05/M01 A2968 RMK AO2
SLP058 T00501006 $





000
SAUS41 KLWX 260358
MTRDMH
METAR KDMH 260354Z AUTO 07/03 A2972 RMK AO1 SLP062 T00720033





000
SAUS41 KLWX 260358
MTRDMH
METAR KDMH 260354Z AUTO 07/03 A2972 RMK AO1 SLP062 T00720033





000
SAUS41 KLWX 260356
MTRNAK
METAR KNAK 260354Z AUTO 00000KT 8SM -RA BKN048 OVC065 07/04 A2973
RMK AO2 SLP068 P0005 T00670044





000
SAUS41 KLWX 260310
MTRRSP
METAR KRSP 260254Z AUTO 10SM OVC060 03/M02 RMK AO2 SLPNO T00281017 $





000
SAUS41 KLWX 260300
MTRRYT
METAR KRYT 260253Z AUTO VRB03KT 10SM OVC095 05/M01 A2972 RMK AO2
SLP070 T00501011 50004 $





000
SAUS41 KLWX 260258
MTRDMH
METAR KDMH 260254Z AUTO 07/04 A2976 RMK AO1 SLP076 T00670039 50003





000
SAUS41 KLWX 260258
MTRDMH
METAR KDMH 260254Z AUTO 07/04 A2976 RMK AO1 SLP076 T00670039 50003





000
SAUS41 KLWX 260255
MTRNAK
METAR KNAK 260254Z AUTO 30005KT 5SM -RA BR BKN040 OVC050 07/04 A2977
RMK AO2 SLP081 P0005 60012 T00670044 53002





000
SAUS41 KLWX 260255
MTRNAK
METAR KNAK 260254Z AUTO 30005KT 5SM -RA BR BKN040 OVC050 07/04 A2977
RMK AO2 SLP081 P0005 60012 T00670044 53002





000
SAUS41 KLWX 260210
MTRRSP
METAR KRSP 260154Z AUTO 10SM OVC070 03/M02 RMK AO2 SLPNO T00281022 $





000
SAUS41 KLWX 260200
MTRRYT
METAR KRYT 260153Z AUTO VRB03KT 10SM OVC110 07/M03 A2972 RMK AO2
SLP072 T00671028 $





000
SAUS41 KLWX 260158
MTRDMH
METAR KDMH 260154Z AUTO 07/04 A2976 RMK AO1 SLP078 T00720044





000
SAUS41 KLWX 260158
MTRDMH
METAR KDMH 260154Z AUTO 07/04 A2976 RMK AO1 SLP078 T00720044





000
SAUS41 KLWX 260155
MTRNAK
METAR KNAK 260154Z AUTO 29004KT 9SM -RA BKN050 OVC070 07/05 A2976
RMK AO2 SLP079 P0002 T00720050





000
SAUS41 KLWX 260110
MTRRSP
METAR KRSP 260054Z AUTO 10SM OVC095 03/M03 RMK AO2 SLPNO T00331033 $





000
SAUS41 KLWX 260110
MTRRSP
METAR KRSP 260054Z AUTO 10SM OVC095 03/M03 RMK AO2 SLPNO T00331033 $





000
SAUS41 KLWX 260100
MTRRYT
METAR KRYT 260053Z AUTO 00000KT 10SM SCT110 08/M02 A2971 RMK AO2
SLP067 T00831022 $





000
SAUS41 KLWX 260058
MTRDMH
METAR KDMH 260054Z AUTO 08/02 A2975 RMK AO1 SLP072 T00830017





000
SAUS41 KLWX 260055
MTRNAK
METAR KNAK 260054Z AUTO 24005KT 6SM -RA BR FEW065 OVC090 07/04 A2975
RMK AO2 SLP074 P0005 T00670044





000
SAUS41 KLWX 260055
MTRNAK
METAR KNAK 260054Z AUTO 24005KT 6SM -RA BR FEW065 OVC090 07/04 A2975
RMK AO2 SLP074 P0005 T00670044





000
SAUS41 KLWX 260010
MTRRSP
METAR KRSP 252354Z AUTO 10SM CLR 06/M04 RMK AO2 SLPNO T00561044
10106 20056 $





000
SAUS41 KLWX 260010
MTRRSP
METAR KRSP 252354Z AUTO 10SM CLR 06/M04 RMK AO2 SLPNO T00561044
10106 20056 $





000
SAUS41 KLWX 260000
MTRRYT
METAR KRYT 252353Z AUTO 21003KT 10SM CLR 09/M02 A2970 RMK AO2 SLP065
T00891022 10122 20089 56008 $





000
SAUS41 KLWX 260000
MTRRYT
METAR KRYT 252353Z AUTO 21003KT 10SM CLR 09/M02 A2970 RMK AO2 SLP065
T00891022 10122 20089 56008 $





000
SAUS41 KLWX 252358
MTRDMH
METAR KDMH 252354Z AUTO 10/00 A2975 RMK AO1 SLP073 T01000000 10128
20100 58009





000
SAUS41 KLWX 252355
MTRNAK
METAR KNAK 252354Z AUTO 24005KT 10SM -RA OVC090 07/03 A2976 RMK AO2
SLP079 P0001 60001 T00720033 10117 20072 58007





000
SAUS41 KLWX 252355
MTRNAK
METAR KNAK 252354Z AUTO 24005KT 10SM -RA OVC090 07/03 A2976 RMK AO2
SLP079 P0001 60001 T00720033 10117 20072 58007





000
SAUS41 KLWX 252310
MTRRSP
METAR KRSP 252254Z AUTO 10SM CLR 07/M03 RMK AO2 SLPNO T00671028 $





000
SAUS41 KLWX 252300
MTRRYT
METAR KRYT 252253Z AUTO 00000KT 10SM CLR 09/M02 A2971 RMK AO2 SLP067
T00941022 $





000
SAUS41 KLWX 252300
MTRRYT
METAR KRYT 252253Z AUTO 00000KT 10SM CLR 09/M02 A2971 RMK AO2 SLP067
T00941022 $





000
SAUS41 KLWX 252258
MTRDMH
METAR KDMH 252254Z AUTO 11/M03 A2976 RMK AO1 SLP078 T01111028





000
SAUS41 KLWX 252255
MTRNAK
METAR KNAK 252254Z AUTO 18010KT 10SM -RA FEW080 OVC095 09/02 A2977
RMK AO2 RAB54 SLP082 P0000 T00940022





000
SAUS41 KLWX 252255
MTRNAK
METAR KNAK 252254Z AUTO 18010KT 10SM -RA FEW080 OVC095 09/02 A2977
RMK AO2 RAB54 SLP082 P0000 T00940022





000
SAUS41 KLWX 252210
MTRRSP
METAR KRSP 252154Z AUTO 10SM CLR 08/M03 RMK AO2 SLPNO T00781028 $





000
SAUS41 KLWX 252200
MTRRYT
METAR KRYT 252153Z AUTO VRB04KT 10SM CLR 10/M02 A2972 RMK AO2 SLP072
T01001017 $





000
SAUS41 KLWX 252158
MTRDMH
METAR KDMH 252154Z AUTO 11/02 A2977 RMK AO1 SLP081 T01110017





000
SAUS41 KLWX 252155
MTRNAK
METAR KNAK 252154Z AUTO 16007KT 10SM OVC075 10/02 A2977 RMK AO2
SLP083 T01000022





000
SAUS41 KLWX 252155
MTRNAK
METAR KNAK 252154Z AUTO 16007KT 10SM OVC075 10/02 A2977 RMK AO2
SLP083 T01000022





000
SAUS41 KLWX 252110
MTRRSP
METAR KRSP 252054Z AUTO 10SM SCT100 08/M03 RMK AO2 SLPNO T00831028 $





000
SAUS41 KLWX 252100
MTRRYT
METAR KRYT 252053Z AUTO 00000KT 10SM FEW110 11/M03 A2973 RMK AO2
SLP074 T01111033 56036 $





000
SAUS41 KLWX 252100
MTRRYT
METAR KRYT 252053Z AUTO 00000KT 10SM FEW110 11/M03 A2973 RMK AO2
SLP074 T01111033 56036 $





000
SAUS41 KLWX 252058
MTRDMH
METAR KDMH 252054Z AUTO 12/M02 A2978 RMK AO1 SLP083 T01171017 56037





000
SAUS41 KLWX 252058
MTRDMH
METAR KDMH 252054Z AUTO 12/M02 A2978 RMK AO1 SLP083 T01171017 56037





000
SAUS41 KLWX 252055
MTRNAK
METAR KNAK 252054Z AUTO 00000KT 10SM OVC075 11/M01 A2978 RMK AO2
SLP086 T01111006 56034





000
SAUS41 KLWX 252010
MTRRSP
METAR KRSP 251954Z AUTO 10SM FEW080 09/M04 RMK AO2 SLPNO T00891039 $





000
SAUS41 KLWX 252010
MTRRSP
METAR KRSP 251954Z AUTO 10SM FEW080 09/M04 RMK AO2 SLPNO T00891039 $





000
SAUS41 KLWX 252000
MTRRYT
METAR KRYT 251953Z AUTO 00000KT 10SM SCT095 12/M07 A2975 RMK AO2
SLP080 T01171072 $





000
SAUS41 KLWX 251958
MTRDMH
METAR KDMH 251954Z AUTO 12/M02 A2981 RMK AO1 SLP093 T01171017





000
SAUS41 KLWX 251955
MTRNAK
METAR KNAK 251954Z AUTO 12005KT 10SM OVC075 10/01 A2981 RMK AO2
SLP097 T01000006





000
SAUS41 KLWX 251955
MTRNAK
METAR KNAK 251954Z AUTO 12005KT 10SM OVC075 10/01 A2981 RMK AO2
SLP097 T01000006





000
SAUS41 KLWX 251910
MTRRSP
METAR KRSP 251854Z AUTO 10SM CLR 10/M04 RMK AO2 SLPNO T01001044 $





000
SAUS41 KLWX 251900
MTRRYT
METAR KRYT 251853Z AUTO VRB04KT 10SM CLR 11/M07 A2980 RMK AO2 SLP096
T01111067 $





000
SAUS41 KLWX 251858
MTRDMH
METAR KDMH 251854Z AUTO 12/M02 A2984 RMK AO1 SLP105 T01221022





000
SAUS41 KLWX 251858
MTRDMH
METAR KDMH 251854Z AUTO 12/M02 A2984 RMK AO1 SLP105 T01221022





000
SAUS41 KLWX 251855
MTRNAK
METAR KNAK 251854Z AUTO VRB03KT 10SM OVC095 10/00 A2984 RMK AO2
SLP108 T01000000





000
SAUS41 KLWX 251810
MTRRSP
METAR KRSP 251754Z AUTO 10SM CLR 09/M07 RMK AO2 SLPNO T00941067
10094 20022 $





000
SAUS41 KLWX 251810
MTRRSP
METAR KRSP 251754Z AUTO 10SM CLR 09/M07 RMK AO2 SLPNO T00941067
10094 20022 $





000
SAUS41 KLWX 251800
MTRRYT
METAR KRYT 251753Z AUTO 00000KT 10SM FEW120 09/M08 A2984 RMK AO2
SLP110 T00941083 10094 20044 58026 $





000
SAUS41 KLWX 251800
MTRRYT
METAR KRYT 251753Z AUTO 00000KT 10SM FEW120 09/M08 A2984 RMK AO2
SLP110 T00941083 10094 20044 58026 $





000
SAUS41 KLWX 251758
MTRDMH
METAR KDMH 251754Z AUTO 11/M03 A2989 RMK AO1 SLP120 T01061033 10106
20072 58024





000
SAUS41 KLWX 251756
MTRNAK
METAR KNAK 251754Z AUTO 15005KT 10SM OVC100 10/02 A2988 RMK AO2
SLP120 T01000017 10100 20072 57025





000
SAUS41 KLWX 251756
MTRNAK
METAR KNAK 251754Z AUTO 15005KT 10SM OVC100 10/02 A2988 RMK AO2
SLP120 T01000017 10100 20072 57025





000
SAUS41 KLWX 251709
MTRRSP
METAR KRSP 251654Z AUTO 10SM BKN090 06/M06 RMK AO2 SLPNO T00561061 $





000
SAUS41 KLWX 251700
MTRRYT
METAR KRYT 251653Z AUTO 31003KT 10SM BKN075 OVC100 07/M08 A2987 RMK
AO2 SLP121 T00721078 $





000
SAUS41 KLWX 251700
MTRRYT
METAR KRYT 251653Z AUTO 31003KT 10SM BKN075 OVC100 07/M08 A2987 RMK
AO2 SLP121 T00721078 $





000
SAUS41 KLWX 251658
MTRDMH
METAR KDMH 251654Z AUTO 09/M03 A2991 RMK AO1 SLP128 T00941033





000
SAUS41 KLWX 251658
MTRDMH
METAR KDMH 251654Z AUTO 09/M03 A2991 RMK AO1 SLP128 T00941033





000
SAUS41 KLWX 251656
MTRNAK
METAR KNAK 251654Z AUTO 17007KT 10SM OVC100 09/00 A2990 RMK AO2
SLP128 T00890000





000
SAUS41 KLWX 251609
MTRRSP
METAR KRSP 251554Z AUTO 10SM BKN065 OVC080 06/M08 RMK AO2 SLPNO
T00561078 $





000
SAUS41 KLWX 251600
MTRRYT
METAR KRYT 251553Z AUTO 00000KT 10SM FEW050 OVC075 07/M11 A2988 RMK
AO2 SLP125 T00671106 $





000
SAUS41 KLWX 251558
MTRDMH
METAR KDMH 251554Z AUTO 08/M06 A2994 RMK AO1 SLP139 T00831061





000
SAUS41 KLWX 251555
MTRNAK
METAR KNAK 251554Z AUTO VRB03KT 10SM OVC100 09/M02 A2993 RMK AO2
SLP138 T00941017





000
SAUS41 KLWX 251555
MTRNAK
METAR KNAK 251554Z AUTO VRB03KT 10SM OVC100 09/M02 A2993 RMK AO2
SLP138 T00941017





000
SAUS41 KLWX 251511
MTRRSP
METAR KRSP 251454Z AUTO 10SM OVC070 04/M11 RMK AO2 SLPNO T00441111 $





000
SAUS41 KLWX 251500
MTRRYT
METAR KRYT 251453Z AUTO 00000KT 10SM FEW055 OVC075 06/M08 A2991 RMK
AO2 SLP135 T00561083 55019 $





000
SAUS41 KLWX 251458
MTRDMH
METAR KDMH 251454Z AUTO 08/M03 A2996 RMK AO1 SLP143 T00831033 56013





000
SAUS41 KLWX 251455
MTRNAK
METAR KNAK 251454Z AUTO 19004KT 10SM FEW055 OVC100 08/M02 A2996 RMK
AO2 SLP145 T00831022 58007





000
SAUS41 KLWX 251410
MTRRSP
METAR KRSP 251354Z AUTO 10SM OVC065 05/M10 RMK AO2 SLPNO T00501100 $





000
SAUS41 KLWX 251400
MTRRYT
METAR KRYT 251353Z AUTO 00000KT 10SM BKN055 OVC070 06/M09 A2991 RMK
AO2 SLP134 T00561089 $





000
SAUS41 KLWX 251358
MTRDMH
METAR KDMH 251354Z AUTO 08/M07 A2996 RMK AO1 SLP146 T00831067





000
SAUS41 KLWX 251356
MTRNAK
METAR KNAK 251354Z AUTO 00000KT 10SM OVC100 08/M03 A2996 RMK AO2
SLP148 T00781028





000
SAUS41 KLWX 251310
MTRRSP
METAR KRSP 251254Z AUTO 10SM SCT055 OVC070 03/M11 RMK AO2 SLPNO
T00331111 $





000
SAUS41 KLWX 251300
MTRRYT
METAR KRYT 251253Z AUTO 00000KT 10SM OVC065 04/M10 A2995 RMK AO2
SLP148 T00441100 $





000
SAUS41 KLWX 251258
MTRDMH
METAR KDMH 251254Z AUTO 08/M05 A2998 RMK AO1 PRESFR SLP150 T00781050





000
SAUS41 KLWX 251255
MTRNAK
METAR KNAK 251254Z AUTO VRB03KT 10SM BKN110 08/M02 A2998 RMK AO2
SLP155 T00831022





000
SAUS41 KLWX 251210
MTRRSP
METAR KRSP 251154Z AUTO 10SM OVC047 02/M11 RMK AO2 SLPNO T00221111
10039 20017 $





000
SAUS41 KLWX 251210
MTRRSP
METAR KRSP 251154Z AUTO 10SM OVC047 02/M11 RMK AO2 SLPNO T00221111
10039 20017 $





000
SAUS41 KLWX 251200
MTRRYT
METAR KRYT 251153Z AUTO VRB04KT 10SM OVC075 04/M09 A2997 RMK AO2
SLP155 T00441094 10056 20006 53010 $





000
SAUS41 KLWX 251200
MTRRYT
METAR KRYT 251153Z AUTO VRB04KT 10SM OVC075 04/M09 A2997 RMK AO2
SLP155 T00441094 10056 20006 53010 $





000
SAUS41 KLWX 251158
MTRDMH
METAR KDMH 251154Z AUTO 07/M06 A2999 RMK AO1 SLP156 T00721056 10100
20061 53006





000
SAUS41 KLWX 251158
MTRDMH
METAR KDMH 251154Z AUTO 07/M06 A2999 RMK AO1 SLP156 T00721056 10100
20061 53006





000
SAUS41 KLWX 251155
MTRNAK
METAR KNAK 251154Z AUTO 11003KT 10SM OVC100 07/M02 A2998 RMK AO2
SLP152 T00721022 10094 20072 51004





000
SAUS41 KLWX 251155
MTRNAK
METAR KNAK 251154Z AUTO 11003KT 10SM OVC100 07/M02 A2998 RMK AO2
SLP152 T00721022 10094 20072 51004





000
SAUS41 KLWX 251109
MTRRSP
METAR KRSP 251054Z AUTO 10SM OVC075 02/M12 RMK AO2 SLPNO T00221122 $





000
SAUS41 KLWX 251100
MTRRYT
METAR KRYT 251053Z AUTO 00000KT 10SM OVC095 03/M07 A2994 RMK AO2
SLP144 T00331067 $





000
SAUS41 KLWX 251058
MTRDMH
METAR KDMH 251054Z AUTO 07/M04 A2998 RMK AO1 SLP150 T00721044





000
SAUS41 KLWX 251055
MTRNAK
METAR KNAK 251054Z AUTO 09004KT 10SM BKN110 07/M01 A2998 RMK AO2
SLP152 T00721011





000
SAUS41 KLWX 251010
MTRRSP
METAR KRSP 250954Z AUTO 10SM OVC095 02/M12 RMK AO2 SLPNO T00221122 $





000
SAUS41 KLWX 251010
MTRRSP
METAR KRSP 250954Z AUTO 10SM OVC095 02/M12 RMK AO2 SLPNO T00221122 $





000
SAUS41 KLWX 251000
MTRRYT
METAR KRYT 250953Z AUTO 00000KT 10SM OVC100 03/M09 A2994 RMK AO2
SLP144 T00331089 $





000
SAUS41 KLWX 250958
MTRDMH
METAR KDMH 250954Z AUTO 07/M04 A2998 RMK AO1 SLP152 T00671039





000
SAUS41 KLWX 250955
MTRNAK
METAR KNAK 250954Z AUTO 09003KT 10SM CLR 07/M01 A2998 RMK AO2 SLP153
T00721011





000
SAUS41 KLWX 250910
MTRRSP
METAR KRSP 250854Z AUTO 10SM BKN100 02/M13 RMK AO2 SLPNO T00221128 $





000
SAUS41 KLWX 250900
MTRRYT
METAR KRYT 250853Z AUTO 00000KT 10SM FEW120 01/M09 A2994 RMK AO2
SLP146 T00111089 56002 $





000
SAUS41 KLWX 250858
MTRDMH
METAR KDMH 250854Z AUTO 06/M05 A2998 RMK AO1 SLP150 T00611050 50001





000
SAUS41 KLWX 250855
MTRNAK
METAR KNAK 250854Z AUTO 07005KT 10SM CLR 07/M01 A2996 RMK AO2 SLP148
T00721011 50000





000
SAUS41 KLWX 250810
MTRRSP
METAR KRSP 250754Z AUTO 10SM FEW110 02/M13 RMK AO2 SLPNO T00171133 $





000
SAUS41 KLWX 250810
MTRRSP
METAR KRSP 250754Z AUTO 10SM FEW110 02/M13 RMK AO2 SLPNO T00171133 $





000
SAUS41 KLWX 250800
MTRRYT
METAR KRYT 250753Z AUTO 00000KT 10SM CLR 03/M11 A2995 RMK AO2 SLP147
T00331106 $





000
SAUS41 KLWX 250758
MTRDMH
METAR KDMH 250754Z AUTO 07/M05 A2999 RMK AO1 SLP154 T00671050





000
SAUS41 KLWX 250755
MTRNAK
METAR KNAK 250754Z AUTO 05004KT 10SM CLR 08/M02 A2997 RMK AO2 SLP150
T00781022





000
SAUS41 KLWX 250709
MTRRSP
METAR KRSP 250654Z AUTO 10SM CLR 03/M13 RMK AO2 SLPNO T00281133 $





000
SAUS41 KLWX 250709
MTRRSP
METAR KRSP 250654Z AUTO 10SM CLR 03/M13 RMK AO2 SLPNO T00281133 $





000
SAUS41 KLWX 250700
MTRRYT
METAR KRYT 250653Z AUTO 00000KT 10SM CLR 04/M10 A2994 RMK AO2 SLP143
T00391100 $





000
SAUS41 KLWX 250700
MTRRYT
METAR KRYT 250653Z AUTO 00000KT 10SM CLR 04/M10 A2994 RMK AO2 SLP143
T00391100 $





000
SAUS41 KLWX 250658
MTRDMH
METAR KDMH 250654Z AUTO 09/M07 A2998 RMK AO1 SLP150 T00891072





000
SAUS41 KLWX 250658
MTRDMH
METAR KDMH 250654Z AUTO 09/M07 A2998 RMK AO1 SLP150 T00891072





000
SAUS41 KLWX 250655
MTRNAK
METAR KNAK 250654Z AUTO 35005KT 10SM CLR 09/00 A2996 RMK AO2 SLP148
T00890000





000
SAUS41 KLWX 250610
MTRRSP
METAR KRSP 250554Z AUTO 10SM CLR 03/M10 RMK AO2 SLPNO T00331100
10083 20033 $





000
SAUS41 KLWX 250601
MTRRYT
METAR KRYT 250553Z AUTO 00000KT 10SM CLR 05/M08 A2995 RMK AO2 SLP146
T00501078 10117 20044 53005 $





000
SAUS41 KLWX 250558
MTRDMH
METAR KDMH 250554Z AUTO 10/M07 A2997 RMK AO1 SLP149 T01001072 10139
20094 51008





000
SAUS41 KLWX 250558
MTRDMH
METAR KDMH 250554Z AUTO 10/M07 A2997 RMK AO1 SLP149 T01001072 10139
20094 51008





000
SAUS41 KLWX 250555
MTRNAK
METAR KNAK 250554Z AUTO 00000KT 10SM CLR 07/02 A2996 RMK AO2 SLP148
T00720017 10133 20072 53005





000
SAUS41 KLWX 250555
MTRNAK
METAR KNAK 250554Z AUTO 00000KT 10SM CLR 07/02 A2996 RMK AO2 SLP148
T00720017 10133 20072 53005





000
SAUS41 KLWX 250510
MTRRSP
METAR KRSP 250454Z AUTO 10SM CLR 05/M10 RMK AO2 SLPNO T00501100
401111011 $





000
SAUS41 KLWX 250500
MTRRYT
METAR KRYT 250453Z AUTO 00000KT 10SM CLR 07/M09 A2994 RMK AO2 SLP145
T00721094 401330017 $





000
SAUS41 KLWX 250458
MTRDMH
METAR KDMH 250454Z AUTO 10/M05 A2997 RMK AO1 SLP148 T01001050
401440050





000
SAUS41 KLWX 250455
MTRNAK
METAR KNAK 250454Z AUTO 00000KT 10SM CLR 08/M01 A2996 RMK AO2 SLP147
T00781011 401440050





000
SAUS41 KLWX 250409
MTRRSP
METAR KRSP 250354Z AUTO 10SM CLR 06/M09 RMK AO2 SLPNO T00561094 $





000
SAUS41 KLWX 250400
MTRRYT
METAR KRYT 250353Z AUTO 00000KT 10SM CLR 08/M09 A2993 RMK AO2 SLP141
T00831094 $





000
SAUS41 KLWX 250400
MTRRYT
METAR KRYT 250353Z AUTO 00000KT 10SM CLR 08/M09 A2993 RMK AO2 SLP141
T00831094 $





000
SAUS41 KLWX 250358
MTRDMH
METAR KDMH 250354Z AUTO 11/M06 A2995 RMK AO1 SLP142 T01061061





000
SAUS41 KLWX 250355
MTRNAK
METAR KNAK 250354Z AUTO 00000KT 10SM CLR 08/M02 A2995 RMK AO2 SLP143
T00781017





000
SAUS41 KLWX 250310
MTRRSP
METAR KRSP 250254Z AUTO 10SM CLR 07/M09 RMK AO2 SLPNO T00671089 $





000
SAUS41 KLWX 250310
MTRRSP
METAR KRSP 250254Z AUTO 10SM CLR 07/M09 RMK AO2 SLPNO T00671089 $





000
SAUS41 KLWX 250300
MTRRYT
METAR KRYT 250253Z AUTO 00000KT 10SM CLR 09/M09 A2993 RMK AO2 SLP140
T00941089 51012 $





000
SAUS41 KLWX 250258
MTRDMH
METAR KDMH 250254Z AUTO 12/M07 A2995 RMK AO1 SLP141 T01171067 53011





000
SAUS41 KLWX 250258
MTRDMH
METAR KDMH 250254Z AUTO 12/M07 A2995 RMK AO1 SLP141 T01171067 53011





000
SAUS41 KLWX 250255
MTRNAK
METAR KNAK 250254Z AUTO 29003KT 10SM CLR 09/M03 A2995 RMK AO2 SLP143
T00941028 53012





000
SAUS41 KLWX 250255
MTRNAK
METAR KNAK 250254Z AUTO 29003KT 10SM CLR 09/M03 A2995 RMK AO2 SLP143
T00941028 53012





000
SAUS41 KLWX 250209
MTRRSP
METAR KRSP 250154Z AUTO 10SM CLR 07/M08 RMK AO2 SLPNO T00671083 $





000
SAUS41 KLWX 250200
MTRRYT
METAR KRYT 250153Z AUTO VRB06KT 10SM CLR 10/M09 A2992 RMK AO2 SLP138
T01001089 $





000
SAUS41 KLWX 250158
MTRDMH
METAR KDMH 250154Z AUTO 13/M07 A2994 RMK AO1 SLP138 T01281072





000
SAUS41 KLWX 250158
MTRDMH
METAR KDMH 250154Z AUTO 13/M07 A2994 RMK AO1 SLP138 T01281072





000
SAUS41 KLWX 250155
MTRNAK
METAR KNAK 250154Z AUTO 26003KT 10SM CLR 10/M06 A2994 RMK AO2 SLP139
T01001056





000
SAUS41 KLWX 250155
MTRNAK
METAR KNAK 250154Z AUTO 26003KT 10SM CLR 10/M06 A2994 RMK AO2 SLP139
T01001056





000
SAUS41 KLWX 250109
MTRRSP
METAR KRSP 250054Z AUTO 10SM CLR 08/M07 RMK AO2 SLPNO T00781072 $





000
SAUS41 KLWX 250109
MTRRSP
METAR KRSP 250054Z AUTO 10SM CLR 08/M07 RMK AO2 SLPNO T00781072 $





000
SAUS41 KLWX 250100
MTRRYT
METAR KRYT 250053Z AUTO 00000KT 10SM CLR 09/M07 A2991 RMK AO2 SLP136
T00941067 $





000
SAUS41 KLWX 250058
MTRDMH
METAR KDMH 250054Z AUTO 13/M08 A2992 RMK AO1 SLP132 T01331078





000
SAUS41 KLWX 250055
MTRNAK
METAR KNAK 250054Z AUTO 31003KT 10SM CLR 12/M04 A2992 RMK AO2 SLP134
T01221044





000
SAUS41 KLWX 250055
MTRNAK
METAR KNAK 250054Z AUTO 31003KT 10SM CLR 12/M04 A2992 RMK AO2 SLP134
T01221044





000
SAUS41 KLWX 250010
MTRRSP
METAR KRSP 242354Z AUTO 10SM CLR 08/M08 RMK AO2 SLPNO T00831078
10111 20083 $





000
SAUS41 KLWX 250010
MTRRSP
METAR KRSP 242354Z AUTO 10SM CLR 08/M08 RMK AO2 SLPNO T00831078
10111 20083 $





000
SAUS41 KLWX 250000
MTRRYT
METAR KRYT 242353Z AUTO 35004KT 10SM CLR 11/M08 A2990 RMK AO2 SLP130
T01111078 10133 20100 53004 $





000
SAUS41 KLWX 250000
MTRRYT
METAR KRYT 242353Z AUTO 35004KT 10SM CLR 11/M08 A2990 RMK AO2 SLP130
T01111078 10133 20100 53004 $





000
SAUS41 KLWX 242358
MTRDMH
METAR KDMH 242354Z AUTO 14/M08 A2991 RMK AO1 SLP130 T01391078 10144
20117 53001





000
SAUS41 KLWX 242358
MTRDMH
METAR KDMH 242354Z AUTO 14/M08 A2991 RMK AO1 SLP130 T01391078 10144
20117 53001





000
SAUS41 KLWX 242355
MTRNAK
METAR KNAK 242354Z AUTO 30007KT 10SM CLR 13/M07 A2991 RMK AO2 SLP131
T01331067 10144 20117 53003





000
SAUS41 KLWX 242355
MTRNAK
METAR KNAK 242354Z AUTO 30007KT 10SM CLR 13/M07 A2991 RMK AO2 SLP131
T01331067 10144 20117 53003





000
SAUS41 KLWX 242309
MTRRSP
METAR KRSP 242254Z AUTO 10SM CLR 09/M08 RMK AO2 SLPNO T00941078 $





000
SAUS41 KLWX 242300
MTRRYT
METAR KRYT 242253Z AUTO 26008G15KT 230V310 10SM CLR 12/M08 A2989 RMK
AO2 SLP127 T01221078 $





000
SAUS41 KLWX 242300
MTRRYT
METAR KRYT 242253Z AUTO 26008G15KT 230V310 10SM CLR 12/M08 A2989 RMK
AO2 SLP127 T01221078 $





000
SAUS41 KLWX 242258
MTRDMH
METAR KDMH 242254Z AUTO 14/M08 A2991 RMK AO1 SLP128 T01391083





000
SAUS41 KLWX 242258
MTRDMH
METAR KDMH 242254Z AUTO 14/M08 A2991 RMK AO1 SLP128 T01391083





000
SAUS41 KLWX 242255
MTRNAK
METAR KNAK 242254Z AUTO 30011G18KT 10SM CLR 14/M06 A2991 RMK AO2
SLP129 T01441061





000
SAUS41 KLWX 242255
MTRNAK
METAR KNAK 242254Z AUTO 30011G18KT 10SM CLR 14/M06 A2991 RMK AO2
SLP129 T01441061





000
SAUS41 KLWX 242210
MTRRSP
METAR KRSP 242154Z AUTO 10SM CLR 11/M08 RMK AO2 SLPNO T01061078 $





000
SAUS41 KLWX 242200
MTRRYT
METAR KRYT 242153Z AUTO VRB05G15KT 10SM CLR 13/M07 A2989 RMK AO2
SLP127 T01281072 $





000
SAUS41 KLWX 242158
MTRDMH
METAR KDMH 242154Z AUTO 14/M08 A2990 RMK AO1 SLP126 T01391083





000
SAUS41 KLWX 242155
MTRNAK
METAR KNAK 242154Z AUTO 32015G24KT 10SM CLR 14/M06 A2990 RMK AO2
SLP126 T01441056





000
SAUS41 KLWX 242109
MTRRSP
METAR KRSP 242054Z AUTO 10SM CLR 11/M08 RMK AO2 SLPNO T01061078 $





000
SAUS41 KLWX 242100
MTRRYT
METAR KRYT 242053Z AUTO VRB05G20KT 10SM CLR 13/M07 A2989 RMK AO2
SLP125 T01281067 56009 $





000
SAUS41 KLWX 242058
MTRDMH
METAR KDMH 242054Z AUTO 14/M08 A2991 RMK AO1 SLP129 T01441083 56011





000
SAUS41 KLWX 242055
MTRNAK
METAR KNAK 242054Z AUTO 30011G20KT 10SM CLR 14/M06 A2991 RMK AO2
SLP129 T01391056 56012





000
SAUS41 KLWX 242055
MTRNAK
METAR KNAK 242054Z AUTO 30011G20KT 10SM CLR 14/M06 A2991 RMK AO2
SLP129 T01391056 56012





000
SAUS41 KLWX 242010
MTRRSP
METAR KRSP 241954Z AUTO 10SM CLR 10/M08 RMK AO2 SLPNO T01001078 $





000
SAUS41 KLWX 242010
MTRRSP
METAR KRSP 241954Z AUTO 10SM CLR 10/M08 RMK AO2 SLPNO T01001078 $





000
SAUS41 KLWX 242000
MTRRYT
METAR KRYT 241953Z AUTO 28011G26KT 240V350 10SM CLR 12/M07 A2989 RMK
AO2 PK WND 29026/1950 SLP129 T01221067 $





000
SAUS41 KLWX 241958
MTRDMH
METAR KDMH 241954Z AUTO 13/M09 A2991 RMK AO1 SLP129 T01331089





000
SAUS41 KLWX 241958
MTRDMH
METAR KDMH 241954Z AUTO 13/M09 A2991 RMK AO1 SLP129 T01331089





000
SAUS41 KLWX 241955
MTRNAK
METAR KNAK 241954Z AUTO 32012G22KT 10SM CLR 13/M06 A2991 RMK AO2 PK
WND 28028/1935 SLP130 T01331056





000
SAUS41 KLWX 241909
MTRRSP
METAR KRSP 241854Z AUTO 10SM CLR 09/M08 RMK AO2 SLPNO T00941083 $





000
SAUS41 KLWX 241909
MTRRSP
METAR KRSP 241854Z AUTO 10SM CLR 09/M08 RMK AO2 SLPNO T00941083 $





000
SAUS41 KLWX 241900
MTRRYT
METAR KRYT 241853Z AUTO VRB06G21KT 10SM CLR 11/M07 A2990 RMK AO2
SLP132 T01111072 $





000
SAUS41 KLWX 241858
MTRDMH
METAR KDMH 241854Z AUTO 13/M08 A2993 RMK AO1 SLP135 T01281083





000
SAUS41 KLWX 241855
MTRNAK
METAR KNAK 241854Z AUTO 32013G19KT 10SM CLR 12/M06 A2993 RMK AO2 PK
WND 28027/1839 SLP136 T01221061





000
SAUS41 KLWX 241809
MTRRSP
METAR KRSP 241754Z AUTO 10SM CLR 09/M08 RMK AO2 SLPNO T00891078
10089 20006 $





000
SAUS41 KLWX 241809
MTRRSP
METAR KRSP 241754Z AUTO 10SM CLR 09/M08 RMK AO2 SLPNO T00891078
10089 20006 $





000
SAUS41 KLWX 241800
MTRRYT
METAR KRYT 241753Z AUTO 33007G16KT 300V010 10SM CLR 11/M06 A2991 RMK
AO2 SLP135 T01061061 10106 20028 58016 $





000
SAUS41 KLWX 241758
MTRDMH
METAR KDMH 241754Z AUTO 12/M09 A2994 RMK AO1 SLP140 T01171094 10122
20056 58018





000
SAUS41 KLWX 241758
MTRDMH
METAR KDMH 241754Z AUTO 12/M09 A2994 RMK AO1 SLP140 T01171094 10122
20056 58018





000
SAUS41 KLWX 241755
MTRNAK
METAR KNAK 241754Z AUTO 29012G20KT 10SM CLR 11/M08 A2994 RMK AO2
SLP140 T01111083 10117 20056 58021





000
SAUS41 KLWX 241755
MTRNAK
METAR KNAK 241754Z AUTO 29012G20KT 10SM CLR 11/M08 A2994 RMK AO2
SLP140 T01111083 10117 20056 58021





    US Dept of Commerce
    National Oceanic and Atmospheric Administration
    National Weather Service
    1325 East West Highway
    Silver Spring, MD 20910
    Page Author: NWS Internet Services Team
Disclaimer
Information Quality
Credits
Glossary
Privacy Policy
Freedom of Information Act (FOIA)
About Us
Career Opportunities